sensor_id;sensor_type;location;lat;lon;timestamp;temperature;humidity
68977;SHT31;56029;52.568;13.588;2023-04-25T00:01:45;8.59;83.95
68977;SHT31;56029;52.568;13.588;2023-04-25T00:04:10;8.53;84.08
68977;SHT31;56029;52.568;13.588;2023-04-25T00:06:37;8.48;84.48
68977;SHT31;56029;52.568;13.588;2023-04-25T00:09:03;8.43;84.45
68977;SHT31;56029;52.568;13.588;2023-04-25T00:11:33;8.38;84.33
68977;SHT31;56029;52.568;13.588;2023-04-25T00:13:58;8.35;84.17
68977;SHT31;56029;52.568;13.588;2023-04-25T00:16:27;8.36;83.70
68977;SHT31;56029;52.568;13.588;2023-04-25T00:18:54;8.36;84.02
68977;SHT31;56029;52.568;13.588;2023-04-25T00:21:20;8.32;84.15
68977;SHT31;56029;52.568;13.588;2023-04-25T00:23:46;8.29;84.34
68977;SHT31;56029;52.568;13.588;2023-04-25T00:26:12;8.19;84.69
68977;SHT31;56029;52.568;13.588;2023-04-25T00:28:39;8.16;84.38
68977;SHT31;56029;52.568;13.588;2023-04-25T00:31:05;8.16;84.25
68977;SHT31;56029;52.568;13.588;2023-04-25T00:33:30;8.16;83.74
68977;SHT31;56029;52.568;13.588;2023-04-25T00:35:56;8.19;83.65
68977;SHT31;56029;52.568;13.588;2023-04-25T00:38:21;8.12;83.78
68977;SHT31;56029;52.568;13.588;2023-04-25T00:40:47;8.15;83.46
68977;SHT31;56029;52.568;13.588;2023-04-25T00:43:13;8.15;83.48
68977;SHT31;56029;52.568;13.588;2023-04-25T00:45:39;8.16;83.33
68977;SHT31;56029;52.568;13.588;2023-04-25T00:48:05;8.12;83.42
68977;SHT31;56029;52.568;13.588;2023-04-25T00:50:33;8.15;83.19
68977;SHT31;56029;52.568;13.588;2023-04-25T00:52:59;8.16;82.77
68977;SHT31;56029;52.568;13.588;2023-04-25T00:55:25;8.22;82.64
68977;SHT31;56029;52.568;13.588;2023-04-25T00:57:51;8.25;82.47
68977;SHT31;56029;52.568;13.588;2023-04-25T01:00:17;8.22;82.84
68977;SHT31;56029;52.568;13.588;2023-04-25T01:02:46;8.21;82.86
68977;SHT31;56029;52.568;13.588;2023-04-25T01:05:12;8.21;82.66
68977;SHT31;56029;52.568;13.588;2023-04-25T01:07:37;8.19;83.06
68977;SHT31;56029;52.568;13.588;2023-04-25T01:10:04;8.18;82.85
68977;SHT31;56029;52.568;13.588;2023-04-25T01:12:31;8.09;82.96
68977;SHT31;56029;52.568;13.588;2023-04-25T01:14:57;8.08;83.02
68977;SHT31;56029;52.568;13.588;2023-04-25T01:17:23;8.12;82.76
68977;SHT31;56029;52.568;13.588;2023-04-25T01:19:49;8.13;82.90
68977;SHT31;56029;52.568;13.588;2023-04-25T01:22:15;8.15;82.80
68977;SHT31;56029;52.568;13.588;2023-04-25T01:24:43;8.12;82.83
68977;SHT31;56029;52.568;13.588;2023-04-25T01:27:08;8.13;83.08
68977;SHT31;56029;52.568;13.588;2023-04-25T01:29:35;8.16;82.86
68977;SHT31;56029;52.568;13.588;2023-04-25T01:32:01;8.21;82.96
68977;SHT31;56029;52.568;13.588;2023-04-25T01:34:27;8.12;83.01
68977;SHT31;56029;52.568;13.588;2023-04-25T01:36:52;8.16;82.82
68977;SHT31;56029;52.568;13.588;2023-04-25T01:39:18;8.15;82.71
68977;SHT31;56029;52.568;13.588;2023-04-25T01:41:45;8.19;82.66
68977;SHT31;56029;52.568;13.588;2023-04-25T01:44:12;8.22;82.66
68977;SHT31;56029;52.568;13.588;2023-04-25T01:46:37;8.25;82.48
68977;SHT31;56029;52.568;13.588;2023-04-25T01:49:03;8.22;82.89
68977;SHT31;56029;52.568;13.588;2023-04-25T01:51:29;8.26;82.84
68977;SHT31;56029;52.568;13.588;2023-04-25T01:53:57;8.26;82.48
68977;SHT31;56029;52.568;13.588;2023-04-25T01:56:22;8.26;82.48
68977;SHT31;56029;52.568;13.588;2023-04-25T01:58:48;8.28;82.33
68977;SHT31;56029;52.568;13.588;2023-04-25T02:01:13;8.28;82.42
68977;SHT31;56029;52.568;13.588;2023-04-25T02:03:39;8.28;82.19
68977;SHT31;56029;52.568;13.588;2023-04-25T02:06:05;8.30;82.22
68977;SHT31;56029;52.568;13.588;2023-04-25T02:08:31;8.28;82.46
68977;SHT31;56029;52.568;13.588;2023-04-25T02:10:57;8.28;82.54
68977;SHT31;56029;52.568;13.588;2023-04-25T02:13:23;8.29;82.36
68977;SHT31;56029;52.568;13.588;2023-04-25T02:15:48;8.32;82.10
68977;SHT31;56029;52.568;13.588;2023-04-25T02:18:14;8.36;81.95
68977;SHT31;56029;52.568;13.588;2023-04-25T02:20:41;8.36;82.24
68977;SHT31;56029;52.568;13.588;2023-04-25T02:23:07;8.36;82.23
68977;SHT31;56029;52.568;13.588;2023-04-25T02:25:32;8.35;82.25
68977;SHT31;56029;52.568;13.588;2023-04-25T02:27:58;8.32;82.61
68977;SHT31;56029;52.568;13.588;2023-04-25T02:30:24;8.38;82.76
68977;SHT31;56029;52.568;13.588;2023-04-25T02:32:49;8.35;82.56
68977;SHT31;56029;52.568;13.588;2023-04-25T02:35:15;8.30;82.31
68977;SHT31;56029;52.568;13.588;2023-04-25T02:37:42;8.29;82.57
68977;SHT31;56029;52.568;13.588;2023-04-25T02:40:08;8.32;82.86
68977;SHT31;56029;52.568;13.588;2023-04-25T02:42:34;8.32;82.55
68977;SHT31;56029;52.568;13.588;2023-04-25T02:44:59;8.35;82.38
68977;SHT31;56029;52.568;13.588;2023-04-25T02:47:25;8.32;82.69
68977;SHT31;56029;52.568;13.588;2023-04-25T02:49:51;8.28;82.58
68977;SHT31;56029;52.568;13.588;2023-04-25T02:52:16;8.28;82.94
68977;SHT31;56029;52.568;13.588;2023-04-25T02:54:42;8.25;82.59
68977;SHT31;56029;52.568;13.588;2023-04-25T02:57:08;8.24;82.55
68977;SHT31;56029;52.568;13.588;2023-04-25T02:59:33;8.22;82.97
68977;SHT31;56029;52.568;13.588;2023-04-25T03:02:00;8.25;83.17
68977;SHT31;56029;52.568;13.588;2023-04-25T03:04:25;8.28;83.02
68977;SHT31;56029;52.568;13.588;2023-04-25T03:06:51;8.22;83.17
68977;SHT31;56029;52.568;13.588;2023-04-25T03:09:16;8.29;82.75
68977;SHT31;56029;52.568;13.588;2023-04-25T03:11:44;8.30;82.62
68977;SHT31;56029;52.568;13.588;2023-04-25T03:14:09;8.28;82.84
68977;SHT31;56029;52.568;13.588;2023-04-25T03:16:35;8.28;82.86
68977;SHT31;56029;52.568;13.588;2023-04-25T03:19:02;8.25;82.86
68977;SHT31;56029;52.568;13.588;2023-04-25T03:21:28;8.25;82.90
68977;SHT31;56029;52.568;13.588;2023-04-25T03:23:53;8.25;82.94
68977;SHT31;56029;52.568;13.588;2023-04-25T03:26:19;8.22;82.53
68977;SHT31;56029;52.568;13.588;2023-04-25T03:28:44;8.21;83.03
68977;SHT31;56029;52.568;13.588;2023-04-25T03:31:10;8.21;83.10
68977;SHT31;56029;52.568;13.588;2023-04-25T03:33:35;8.22;83.22
68977;SHT31;56029;52.568;13.588;2023-04-25T03:36:01;8.16;82.85
68977;SHT31;56029;52.568;13.588;2023-04-25T03:38:27;8.19;83.13
68977;SHT31;56029;52.568;13.588;2023-04-25T03:40:53;8.15;82.81
68977;SHT31;56029;52.568;13.588;2023-04-25T03:43:19;8.13;83.39
68977;SHT31;56029;52.568;13.588;2023-04-25T03:45:44;8.16;83.40
68977;SHT31;56029;52.568;13.588;2023-04-25T03:48:10;8.13;83.45
68977;SHT31;56029;52.568;13.588;2023-04-25T03:50:36;8.12;83.09
68977;SHT31;56029;52.568;13.588;2023-04-25T03:53:01;8.11;83.21
68977;SHT31;56029;52.568;13.588;2023-04-25T03:55:27;8.13;83.49
68977;SHT31;56029;52.568;13.588;2023-04-25T03:57:52;8.15;83.50
68977;SHT31;56029;52.568;13.588;2023-04-25T04:00:18;8.13;83.48
68977;SHT31;56029;52.568;13.588;2023-04-25T04:02:43;8.18;83.41
68977;SHT31;56029;52.568;13.588;2023-04-25T04:05:09;8.16;83.67
68977;SHT31;56029;52.568;13.588;2023-04-25T04:07:34;8.11;83.43
68977;SHT31;56029;52.568;13.588;2023-04-25T04:10:10;8.13;83.74
68977;SHT31;56029;52.568;13.588;2023-04-25T04:12:37;8.09;83.82
68977;SHT31;56029;52.568;13.588;2023-04-25T04:15:04;8.08;83.93
68977;SHT31;56029;52.568;13.588;2023-04-25T04:17:30;8.08;83.96
68977;SHT31;56029;52.568;13.588;2023-04-25T04:19:56;8.08;83.79
68977;SHT31;56029;52.568;13.588;2023-04-25T04:22:22;8.06;83.87
68977;SHT31;56029;52.568;13.588;2023-04-25T04:24:48;8.03;83.65
68977;SHT31;56029;52.568;13.588;2023-04-25T04:27:18;8.09;83.81
68977;SHT31;56029;52.568;13.588;2023-04-25T04:29:45;8.05;83.61
68977;SHT31;56029;52.568;13.588;2023-04-25T04:32:11;8.05;84.23
68977;SHT31;56029;52.568;13.588;2023-04-25T04:34:37;8.09;84.05
68977;SHT31;56029;52.568;13.588;2023-04-25T04:37:04;8.11;83.97
68977;SHT31;56029;52.568;13.588;2023-04-25T04:39:30;8.09;84.00
68977;SHT31;56029;52.568;13.588;2023-04-25T04:41:56;8.09;83.48
68977;SHT31;56029;52.568;13.588;2023-04-25T04:44:21;8.09;83.77
68977;SHT31;56029;52.568;13.588;2023-04-25T04:46:48;8.09;83.68
68977;SHT31;56029;52.568;13.588;2023-04-25T04:49:14;8.16;83.74
68977;SHT31;56029;52.568;13.588;2023-04-25T04:51:39;8.09;83.80
68977;SHT31;56029;52.568;13.588;2023-04-25T04:54:09;8.06;83.75
68977;SHT31;56029;52.568;13.588;2023-04-25T04:56:35;8.09;84.07
68977;SHT31;56029;52.568;13.588;2023-04-25T04:59:01;8.12;83.66
68977;SHT31;56029;52.568;13.588;2023-04-25T05:01:28;8.09;83.43
68977;SHT31;56029;52.568;13.588;2023-04-25T05:03:54;8.05;83.91
68977;SHT31;56029;52.568;13.588;2023-04-25T05:06:25;8.13;83.87
68977;SHT31;56029;52.568;13.588;2023-04-25T05:08:51;8.18;83.92
68977;SHT31;56029;52.568;13.588;2023-04-25T05:11:17;8.19;83.28
68977;SHT31;56029;52.568;13.588;2023-04-25T05:13:43;8.22;83.56
68977;SHT31;56029;52.568;13.588;2023-04-25T05:16:08;8.26;83.15
68977;SHT31;56029;52.568;13.588;2023-04-25T05:18:34;8.28;83.02
68977;SHT31;56029;52.568;13.588;2023-04-25T05:21:00;8.25;83.48
68977;SHT31;56029;52.568;13.588;2023-04-25T05:23:26;8.32;83.31
68977;SHT31;56029;52.568;13.588;2023-04-25T05:25:53;8.32;83.27
68977;SHT31;56029;52.568;13.588;2023-04-25T05:28:18;8.35;83.05
68977;SHT31;56029;52.568;13.588;2023-04-25T05:30:44;8.39;83.43
68977;SHT31;56029;52.568;13.588;2023-04-25T05:33:09;8.42;82.91
68977;SHT31;56029;52.568;13.588;2023-04-25T05:35:35;8.40;82.99
68977;SHT31;56029;52.568;13.588;2023-04-25T05:38:00;8.40;83.51
68977;SHT31;56029;52.568;13.588;2023-04-25T05:40:26;8.43;83.32
68977;SHT31;56029;52.568;13.588;2023-04-25T05:42:52;8.40;83.49
68977;SHT31;56029;52.568;13.588;2023-04-25T05:45:17;8.38;83.23
68977;SHT31;56029;52.568;13.588;2023-04-25T05:47:43;8.40;83.52
68977;SHT31;56029;52.568;13.588;2023-04-25T05:50:09;8.43;83.81
68977;SHT31;56029;52.568;13.588;2023-04-25T05:52:34;8.39;83.72
68977;SHT31;56029;52.568;13.588;2023-04-25T05:55:00;8.42;83.40
68977;SHT31;56029;52.568;13.588;2023-04-25T05:57:27;8.43;83.94
68977;SHT31;56029;52.568;13.588;2023-04-25T05:59:53;8.42;83.50
68977;SHT31;56029;52.568;13.588;2023-04-25T06:02:20;8.39;83.66
68977;SHT31;56029;52.568;13.588;2023-04-25T06:04:50;8.45;84.14
68977;SHT31;56029;52.568;13.588;2023-04-25T06:07:16;8.49;83.96
68977;SHT31;56029;52.568;13.588;2023-04-25T06:09:41;8.49;84.16
68977;SHT31;56029;52.568;13.588;2023-04-25T06:12:07;8.43;83.74
68977;SHT31;56029;52.568;13.588;2023-04-25T06:14:33;8.46;84.24
68977;SHT31;56029;52.568;13.588;2023-04-25T06:16:59;8.45;83.84
68977;SHT31;56029;52.568;13.588;2023-04-25T06:19:37;8.45;83.86
68977;SHT31;56029;52.568;13.588;2023-04-25T06:22:03;8.43;84.02
68977;SHT31;56029;52.568;13.588;2023-04-25T06:24:28;8.45;84.21
68977;SHT31;56029;52.568;13.588;2023-04-25T06:26:54;8.49;84.41
68977;SHT31;56029;52.568;13.588;2023-04-25T06:29:20;8.54;84.56
68977;SHT31;56029;52.568;13.588;2023-04-25T06:31:46;8.54;84.12
68977;SHT31;56029;52.568;13.588;2023-04-25T06:34:11;8.49;84.41
68977;SHT31;56029;52.568;13.588;2023-04-25T06:36:37;8.50;84.67
68977;SHT31;56029;52.568;13.588;2023-04-25T06:39:02;8.45;84.74
68977;SHT31;56029;52.568;13.588;2023-04-25T06:41:28;8.50;84.68
68977;SHT31;56029;52.568;13.588;2023-04-25T06:43:54;8.53;85.10
68977;SHT31;56029;52.568;13.588;2023-04-25T06:46:19;8.56;85.38
68977;SHT31;56029;52.568;13.588;2023-04-25T06:48:45;8.56;84.66
68977;SHT31;56029;52.568;13.588;2023-04-25T06:51:10;8.43;85.54
68977;SHT31;56029;52.568;13.588;2023-04-25T06:53:36;8.45;85.89
68977;SHT31;56029;52.568;13.588;2023-04-25T06:56:02;8.46;86.21
68977;SHT31;56029;52.568;13.588;2023-04-25T06:58:28;8.42;85.77
68977;SHT31;56029;52.568;13.588;2023-04-25T07:00:53;8.42;86.03
68977;SHT31;56029;52.568;13.588;2023-04-25T07:03:19;8.40;86.50
68977;SHT31;56029;52.568;13.588;2023-04-25T07:05:45;8.35;86.21
68977;SHT31;56029;52.568;13.588;2023-04-25T07:08:11;8.42;86.32
68977;SHT31;56029;52.568;13.588;2023-04-25T07:10:36;8.40;86.19
68977;SHT31;56029;52.568;13.588;2023-04-25T07:13:02;8.40;85.75
68977;SHT31;56029;52.568;13.588;2023-04-25T07:15:27;8.40;86.37
68977;SHT31;56029;52.568;13.588;2023-04-25T07:17:53;8.42;86.16
68977;SHT31;56029;52.568;13.588;2023-04-25T07:20:18;8.48;86.51
68977;SHT31;56029;52.568;13.588;2023-04-25T07:22:44;8.48;86.53
68977;SHT31;56029;52.568;13.588;2023-04-25T07:25:09;8.40;86.51
68977;SHT31;56029;52.568;13.588;2023-04-25T07:27:35;8.36;86.54
68977;SHT31;56029;52.568;13.588;2023-04-25T07:30:01;8.29;86.81
68977;SHT31;56029;52.568;13.588;2023-04-25T07:32:27;8.18;87.58
68977;SHT31;56029;52.568;13.588;2023-04-25T07:34:52;8.15;88.68
68977;SHT31;56029;52.568;13.588;2023-04-25T07:37:18;8.11;88.03
68977;SHT31;56029;52.568;13.588;2023-04-25T07:39:44;8.05;88.17
68977;SHT31;56029;52.568;13.588;2023-04-25T07:42:11;8.09;87.66
68977;SHT31;56029;52.568;13.588;2023-04-25T07:44:37;8.15;87.39
68977;SHT31;56029;52.568;13.588;2023-04-25T07:47:06;8.25;87.41
68977;SHT31;56029;52.568;13.588;2023-04-25T07:49:35;8.35;86.99
68977;SHT31;56029;52.568;13.588;2023-04-25T07:52:02;8.43;86.83
68977;SHT31;56029;52.568;13.588;2023-04-25T07:54:27;8.45;85.67
68977;SHT31;56029;52.568;13.588;2023-04-25T07:56:53;8.42;85.04
68977;SHT31;56029;52.568;13.588;2023-04-25T07:59:19;8.45;85.54
68977;SHT31;56029;52.568;13.588;2023-04-25T08:01:45;8.42;85.11
68977;SHT31;56029;52.568;13.588;2023-04-25T08:04:10;8.43;84.90
68977;SHT31;56029;52.568;13.588;2023-04-25T08:06:36;8.56;84.57
68977;SHT31;56029;52.568;13.588;2023-04-25T08:09:02;8.84;83.83
68977;SHT31;56029;52.568;13.588;2023-04-25T08:11:28;9.01;82.47
68977;SHT31;56029;52.568;13.588;2023-04-25T08:13:54;9.19;80.85
68977;SHT31;56029;52.568;13.588;2023-04-25T08:16:19;9.29;80.45
68977;SHT31;56029;52.568;13.588;2023-04-25T08:18:45;9.56;79.69
68977;SHT31;56029;52.568;13.588;2023-04-25T08:21:10;9.29;78.77
68977;SHT31;56029;52.568;13.588;2023-04-25T08:23:37;9.19;78.81
68977;SHT31;56029;52.568;13.588;2023-04-25T08:26:03;9.31;78.89
68977;SHT31;56029;52.568;13.588;2023-04-25T08:28:28;9.65;78.37
68977;SHT31;56029;52.568;13.588;2023-04-25T08:30:54;9.70;77.48
68977;SHT31;56029;52.568;13.588;2023-04-25T08:33:19;9.73;78.66
68977;SHT31;56029;52.568;13.588;2023-04-25T08:35:45;9.55;78.28
68977;SHT31;56029;52.568;13.588;2023-04-25T08:38:10;9.19;79.53
68977;SHT31;56029;52.568;13.588;2023-04-25T08:40:38;9.08;81.03
68977;SHT31;56029;52.568;13.588;2023-04-25T08:43:07;9.15;79.89
68977;SHT31;56029;52.568;13.588;2023-04-25T08:45:39;9.15;79.38
68977;SHT31;56029;52.568;13.588;2023-04-25T08:48:11;9.49;79.37
68977;SHT31;56029;52.568;13.588;2023-04-25T08:50:39;9.60;78.00
68977;SHT31;56029;52.568;13.588;2023-04-25T08:53:08;9.49;77.23
68977;SHT31;56029;52.568;13.588;2023-04-25T08:55:37;9.29;77.74
68977;SHT31;56029;52.568;13.588;2023-04-25T08:58:04;9.43;78.26
68977;SHT31;56029;52.568;13.588;2023-04-25T09:00:30;9.39;77.47
68977;SHT31;56029;52.568;13.588;2023-04-25T09:02:57;9.27;78.18
68977;SHT31;56029;52.568;13.588;2023-04-25T09:05:23;9.43;78.41
68977;SHT31;56029;52.568;13.588;2023-04-25T09:07:49;9.77;76.73
68977;SHT31;56029;52.568;13.588;2023-04-25T09:10:14;10.01;76.16
68977;SHT31;56029;52.568;13.588;2023-04-25T09:12:40;9.98;72.49
68977;SHT31;56029;52.568;13.588;2023-04-25T09:15:07;10.16;73.03
68977;SHT31;56029;52.568;13.588;2023-04-25T09:17:34;10.16;70.43
68977;SHT31;56029;52.568;13.588;2023-04-25T09:20:07;10.22;69.27
68977;SHT31;56029;52.568;13.588;2023-04-25T09:22:34;10.03;69.13
68977;SHT31;56029;52.568;13.588;2023-04-25T09:25:02;9.91;69.66
68977;SHT31;56029;52.568;13.588;2023-04-25T09:27:29;10.01;67.77
68977;SHT31;56029;52.568;13.588;2023-04-25T09:29:58;10.31;68.32
68977;SHT31;56029;52.568;13.588;2023-04-25T09:32:27;10.34;65.31
68977;SHT31;56029;52.568;13.588;2023-04-25T09:34:54;10.17;65.11
68977;SHT31;56029;52.568;13.588;2023-04-25T09:37:27;10.21;67.42
68977;SHT31;56029;52.568;13.588;2023-04-25T09:40:00;10.20;66.12
68977;SHT31;56029;52.568;13.588;2023-04-25T09:42:31;10.10;65.61
68977;SHT31;56029;52.568;13.588;2023-04-25T09:44:58;10.27;66.05
68977;SHT31;56029;52.568;13.588;2023-04-25T09:47:25;10.52;65.52
68977;SHT31;56029;52.568;13.588;2023-04-25T09:49:52;10.76;65.38
68977;SHT31;56029;52.568;13.588;2023-04-25T09:52:23;10.73;65.13
68977;SHT31;56029;52.568;13.588;2023-04-25T09:54:50;10.27;64.31
68977;SHT31;56029;52.568;13.588;2023-04-25T09:57:18;9.98;65.85
68977;SHT31;56029;52.568;13.588;2023-04-25T09:59:53;10.16;65.27
68977;SHT31;56029;52.568;13.588;2023-04-25T10:02:21;10.25;65.39
68977;SHT31;56029;52.568;13.588;2023-04-25T10:04:49;10.03;67.24
68977;SHT31;56029;52.568;13.588;2023-04-25T10:07:17;9.87;68.22
68977;SHT31;56029;52.568;13.588;2023-04-25T10:09:49;9.97;67.98
68977;SHT31;56029;52.568;13.588;2023-04-25T10:12:18;10.10;67.70
68977;SHT31;56029;52.568;13.588;2023-04-25T10:14:44;10.64;67.31
68977;SHT31;56029;52.568;13.588;2023-04-25T10:17:10;10.89;64.37
68977;SHT31;56029;52.568;13.588;2023-04-25T10:19:36;10.95;62.10
68977;SHT31;56029;52.568;13.588;2023-04-25T10:22:32;10.69;62.22
68977;SHT31;56029;52.568;13.588;2023-04-25T10:25:00;10.76;61.89
68977;SHT31;56029;52.568;13.588;2023-04-25T10:27:30;10.66;58.09
68977;SHT31;56029;52.568;13.588;2023-04-25T10:30:04;10.93;57.23
68977;SHT31;56029;52.568;13.588;2023-04-25T10:32:31;10.38;56.89
68977;SHT31;56029;52.568;13.588;2023-04-25T10:34:57;10.42;58.99
68977;SHT31;56029;52.568;13.588;2023-04-25T10:37:24;10.24;59.44
68977;SHT31;56029;52.568;13.588;2023-04-25T10:39:49;10.06;59.85
68977;SHT31;56029;52.568;13.588;2023-04-25T10:42:15;10.07;60.06
68977;SHT31;56029;52.568;13.588;2023-04-25T10:45:00;10.04;59.98
68977;SHT31;56029;52.568;13.588;2023-04-25T10:47:35;10.07;59.91
68977;SHT31;56029;52.568;13.588;2023-04-25T10:50:05;10.22;59.20
68977;SHT31;56029;52.568;13.588;2023-04-25T10:52:33;10.25;59.58
68977;SHT31;56029;52.568;13.588;2023-04-25T10:54:58;10.20;57.58
68977;SHT31;56029;52.568;13.588;2023-04-25T10:57:39;10.28;58.69
68977;SHT31;56029;52.568;13.588;2023-04-25T11:00:07;10.34;58.78
68977;SHT31;56029;52.568;13.588;2023-04-25T11:02:37;10.44;58.82
68977;SHT31;56029;52.568;13.588;2023-04-25T11:05:05;10.56;56.78
68977;SHT31;56029;52.568;13.588;2023-04-25T11:07:39;10.61;56.63
68977;SHT31;56029;52.568;13.588;2023-04-25T11:10:09;10.51;54.64
68977;SHT31;56029;52.568;13.588;2023-04-25T11:12:35;10.52;55.67
68977;SHT31;56029;52.568;13.588;2023-04-25T11:15:04;10.80;57.40
68977;SHT31;56029;52.568;13.588;2023-04-25T11:17:30;10.56;54.73
68977;SHT31;56029;52.568;13.588;2023-04-25T11:19:56;10.51;55.30
68977;SHT31;56029;52.568;13.588;2023-04-25T11:22:22;10.52;54.40
68977;SHT31;56029;52.568;13.588;2023-04-25T11:24:48;10.14;56.74
68977;SHT31;56029;52.568;13.588;2023-04-25T11:27:14;9.62;58.96
68977;SHT31;56029;52.568;13.588;2023-04-25T11:29:40;9.46;60.71
68977;SHT31;56029;52.568;13.588;2023-04-25T11:32:06;9.27;60.15
68977;SHT31;56029;52.568;13.588;2023-04-25T11:34:33;9.19;59.12
68977;SHT31;56029;52.568;13.588;2023-04-25T11:36:59;9.17;59.11
68977;SHT31;56029;52.568;13.588;2023-04-25T11:39:26;9.22;59.63
68977;SHT31;56029;52.568;13.588;2023-04-25T11:41:52;9.25;58.85
68977;SHT31;56029;52.568;13.588;2023-04-25T11:44:19;9.42;58.94
68977;SHT31;56029;52.568;13.588;2023-04-25T11:46:45;9.55;57.20
68977;SHT31;56029;52.568;13.588;2023-04-25T11:49:11;9.94;57.92
68977;SHT31;56029;52.568;13.588;2023-04-25T11:51:45;10.13;55.75
68977;SHT31;56029;52.568;13.588;2023-04-25T11:54:11;10.08;53.70
68977;SHT31;56029;52.568;13.588;2023-04-25T11:56:41;10.14;53.26
68977;SHT31;56029;52.568;13.588;2023-04-25T11:59:06;10.31;53.17
68977;SHT31;56029;52.568;13.588;2023-04-25T12:01:33;10.42;53.03
68977;SHT31;56029;52.568;13.588;2023-04-25T12:04:20;10.44;53.56
68977;SHT31;56029;52.568;13.588;2023-04-25T12:06:47;10.42;54.45
68977;SHT31;56029;52.568;13.588;2023-04-25T12:09:14;10.46;53.37
68977;SHT31;56029;52.568;13.588;2023-04-25T12:11:48;10.51;54.81
68977;SHT31;56029;52.568;13.588;2023-04-25T12:16:50;10.58;54.75
68977;SHT31;56029;52.568;13.588;2023-04-25T12:19:19;10.52;54.85
68977;SHT31;56029;52.568;13.588;2023-04-25T12:21:46;10.49;55.54
68977;SHT31;56029;52.568;13.588;2023-04-25T12:26:48;10.51;56.41
68977;SHT31;56029;52.568;13.588;2023-04-25T12:29:23;10.42;55.96
68977;SHT31;56029;52.568;13.588;2023-04-25T12:31:51;10.49;55.81
68977;SHT31;56029;52.568;13.588;2023-04-25T12:34:20;10.45;54.87
68977;SHT31;56029;52.568;13.588;2023-04-25T12:36:46;10.27;54.45
68977;SHT31;56029;52.568;13.588;2023-04-25T12:39:16;10.40;53.15
68977;SHT31;56029;52.568;13.588;2023-04-25T12:41:43;10.27;53.79
68977;SHT31;56029;52.568;13.588;2023-04-25T12:44:08;10.10;53.29
68977;SHT31;56029;52.568;13.588;2023-04-25T12:46:34;10.18;52.74
68977;SHT31;56029;52.568;13.588;2023-04-25T12:49:00;10.44;54.92
68977;SHT31;56029;52.568;13.588;2023-04-25T12:51:26;10.30;53.62
68977;SHT31;56029;52.568;13.588;2023-04-25T12:53:53;10.33;54.49
68977;SHT31;56029;52.568;13.588;2023-04-25T12:56:19;10.14;54.71
68977;SHT31;56029;52.568;13.588;2023-04-25T12:58:44;10.20;55.67
68977;SHT31;56029;52.568;13.588;2023-04-25T13:01:10;10.17;55.15
68977;SHT31;56029;52.568;13.588;2023-04-25T13:03:36;10.31;56.53
68977;SHT31;56029;52.568;13.588;2023-04-25T13:06:02;10.44;55.58
68977;SHT31;56029;52.568;13.588;2023-04-25T13:08:27;10.48;55.46
68977;SHT31;56029;52.568;13.588;2023-04-25T13:10:53;10.80;55.37
68977;SHT31;56029;52.568;13.588;2023-04-25T13:13:18;11.31;56.41
68977;SHT31;56029;52.568;13.588;2023-04-25T13:15:44;11.48;52.95
68977;SHT31;56029;52.568;13.588;2023-04-25T13:18:10;11.35;52.39
68977;SHT31;56029;52.568;13.588;2023-04-25T13:20:35;10.96;51.71
68977;SHT31;56029;52.568;13.588;2023-04-25T13:23:01;10.58;52.99
68977;SHT31;56029;52.568;13.588;2023-04-25T13:25:26;10.40;52.94
68977;SHT31;56029;52.568;13.588;2023-04-25T13:27:52;10.40;54.43
68977;SHT31;56029;52.568;13.588;2023-04-25T13:30:17;10.08;52.51
68977;SHT31;56029;52.568;13.588;2023-04-25T13:32:43;9.90;53.37
68977;SHT31;56029;52.568;13.588;2023-04-25T13:35:11;10.03;54.25
68977;SHT31;56029;52.568;13.588;2023-04-25T13:37:37;9.89;54.08
68977;SHT31;56029;52.568;13.588;2023-04-25T13:40:05;9.72;55.29
68977;SHT31;56029;52.568;13.588;2023-04-25T13:42:32;9.58;56.56
68977;SHT31;56029;52.568;13.588;2023-04-25T13:44:57;9.50;56.77
68977;SHT31;56029;52.568;13.588;2023-04-25T13:47:23;9.43;56.95
68977;SHT31;56029;52.568;13.588;2023-04-25T13:49:49;9.49;56.71
68977;SHT31;56029;52.568;13.588;2023-04-25T13:52:15;9.39;58.13
68977;SHT31;56029;52.568;13.588;2023-04-25T13:54:41;9.39;59.33
68977;SHT31;56029;52.568;13.588;2023-04-25T13:57:06;9.43;59.98
68977;SHT31;56029;52.568;13.588;2023-04-25T13:59:32;9.31;59.74
68977;SHT31;56029;52.568;13.588;2023-04-25T14:01:58;9.34;60.27
68977;SHT31;56029;52.568;13.588;2023-04-25T14:04:24;9.38;60.21
68977;SHT31;56029;52.568;13.588;2023-04-25T14:06:50;9.46;61.00
68977;SHT31;56029;52.568;13.588;2023-04-25T14:09:17;9.56;60.02
68977;SHT31;56029;52.568;13.588;2023-04-25T14:11:42;9.69;59.58
68977;SHT31;56029;52.568;13.588;2023-04-25T14:14:08;9.80;59.22
68977;SHT31;56029;52.568;13.588;2023-04-25T14:16:34;9.86;58.89
68977;SHT31;56029;52.568;13.588;2023-04-25T14:19:00;9.96;59.24
68977;SHT31;56029;52.568;13.588;2023-04-25T14:21:26;10.14;59.05
68977;SHT31;56029;52.568;13.588;2023-04-25T14:23:53;10.07;59.47
68977;SHT31;56029;52.568;13.588;2023-04-25T14:26:19;9.96;59.41
68977;SHT31;56029;52.568;13.588;2023-04-25T14:28:45;9.82;59.22
68977;SHT31;56029;52.568;13.588;2023-04-25T14:31:10;9.73;59.66
68977;SHT31;56029;52.568;13.588;2023-04-25T14:33:36;9.62;60.00
68977;SHT31;56029;52.568;13.588;2023-04-25T14:36:04;9.56;61.48
68977;SHT31;56029;52.568;13.588;2023-04-25T14:38:30;9.56;62.44
68977;SHT31;56029;52.568;13.588;2023-04-25T14:40:56;9.62;61.00
68977;SHT31;56029;52.568;13.588;2023-04-25T14:43:21;9.56;61.73
68977;SHT31;56029;52.568;13.588;2023-04-25T14:45:47;9.58;62.25
68977;SHT31;56029;52.568;13.588;2023-04-25T14:48:12;9.63;61.70
68977;SHT31;56029;52.568;13.588;2023-04-25T14:50:38;9.58;60.39
68977;SHT31;56029;52.568;13.588;2023-04-25T14:53:04;9.42;59.84
68977;SHT31;56029;52.568;13.588;2023-04-25T14:55:29;9.40;61.07
68977;SHT31;56029;52.568;13.588;2023-04-25T14:57:55;9.49;61.31
68977;SHT31;56029;52.568;13.588;2023-04-25T15:00:21;9.50;61.95
68977;SHT31;56029;52.568;13.588;2023-04-25T15:02:48;9.63;61.41
68977;SHT31;56029;52.568;13.588;2023-04-25T15:05:13;9.66;61.14
68977;SHT31;56029;52.568;13.588;2023-04-25T15:07:39;9.63;61.88
68977;SHT31;56029;52.568;13.588;2023-04-25T15:10:08;9.53;61.44
68977;SHT31;56029;52.568;13.588;2023-04-25T15:12:39;9.56;61.92
68977;SHT31;56029;52.568;13.588;2023-04-25T15:15:06;9.55;62.08
68977;SHT31;56029;52.568;13.588;2023-04-25T15:17:37;9.48;62.47
68977;SHT31;56029;52.568;13.588;2023-04-25T15:20:08;9.40;61.82
68977;SHT31;56029;52.568;13.588;2023-04-25T15:22:36;9.34;62.48
68977;SHT31;56029;52.568;13.588;2023-04-25T15:25:02;9.25;62.03
68977;SHT31;56029;52.568;13.588;2023-04-25T15:27:28;9.31;60.71
68977;SHT31;56029;52.568;13.588;2023-04-25T15:29:54;9.46;60.54